createdAt,value
2023-05-14T00:02:38.196Z,2.60
2023-05-14T00:05:25.429Z,2.90
2023-05-14T00:08:12.396Z,3.03
2023-05-14T00:10:59.451Z,3.30
2023-05-14T00:13:46.468Z,3.10
2023-05-14T00:16:33.484Z,3.30
2023-05-14T00:19:20.718Z,3.30
2023-05-14T00:22:08.748Z,2.67
2023-05-14T00:24:55.773Z,2.90
2023-05-14T00:27:42.775Z,3.10
2023-05-14T00:30:29.785Z,2.87
2023-05-14T00:33:16.758Z,3.07
2023-05-14T00:36:04.125Z,3.20
2023-05-14T00:38:51.257Z,3.10
2023-05-14T00:41:38.570Z,3.00
2023-05-14T00:44:25.669Z,3.30
2023-05-14T00:47:13.137Z,2.83
2023-05-14T00:50:01.115Z,3.20
2023-05-14T00:52:48.698Z,2.83
2023-05-14T00:55:38.186Z,2.70
2023-05-14T00:58:25.727Z,2.93
2023-05-14T01:01:15.152Z,3.07
2023-05-14T01:04:02.658Z,3.10
2023-05-14T01:07:11.045Z,2.70
2023-05-14T01:10:08.118Z,2.80
2023-05-14T01:13:18.302Z,2.87
2023-05-14T01:16:08.422Z,3.00
2023-05-14T01:18:57.841Z,3.67
2023-05-14T01:21:44.963Z,3.10
2023-05-14T01:24:32.183Z,3.20
2023-05-14T01:27:31.780Z,3.20
2023-05-14T01:30:28.792Z,2.90
2023-05-14T01:33:18.261Z,2.97
2023-05-14T01:36:05.850Z,3.50
2023-05-14T01:38:54.086Z,3.70
2023-05-14T01:41:42.264Z,3.10
2023-05-14T01:44:29.322Z,3.90
2023-05-14T01:47:16.348Z,3.20
2023-05-14T01:50:03.576Z,3.00
2023-05-14T01:52:53.387Z,3.33
2023-05-14T01:55:41.279Z,3.17
2023-05-14T01:58:28.308Z,3.33
2023-05-14T02:01:15.709Z,3.17
2023-05-14T02:04:02.868Z,3.40
2023-05-14T02:06:49.963Z,3.00
2023-05-14T02:09:37.082Z,3.83
2023-05-14T02:12:24.040Z,3.23
2023-05-14T02:15:11.456Z,3.80
2023-05-14T02:17:58.512Z,3.00
2023-05-14T02:20:46.603Z,3.40
2023-05-14T02:23:41.047Z,3.67
2023-05-14T02:26:28.813Z,3.20
2023-05-14T02:29:16.201Z,3.20
2023-05-14T02:32:03.504Z,3.70
2023-05-14T02:34:50.615Z,3.57
2023-05-14T02:37:37.659Z,3.17
2023-05-14T02:40:24.969Z,3.23
2023-05-14T02:43:12.566Z,3.40
2023-05-14T02:45:59.578Z,3.30
2023-05-14T02:48:46.558Z,3.33
2023-05-14T02:51:33.533Z,3.03
2023-05-14T02:54:20.638Z,3.30
2023-05-14T02:57:07.624Z,3.13
2023-05-14T02:59:55.041Z,3.30
2023-05-14T03:02:43.530Z,2.87
2023-05-14T03:05:31.092Z,3.20
2023-05-14T03:08:18.078Z,3.20
2023-05-14T03:11:05.231Z,2.80
2023-05-14T03:13:52.737Z,3.00
2023-05-14T03:16:42.215Z,2.90
2023-05-14T03:19:29.517Z,3.17
2023-05-14T03:22:16.704Z,3.43
2023-05-14T03:25:03.854Z,3.20
2023-05-14T03:27:51.084Z,3.63
2023-05-14T03:30:38.116Z,3.17
2023-05-14T03:33:25.358Z,3.00
2023-05-14T03:36:12.381Z,2.90
2023-05-14T03:39:00.146Z,3.67
2023-05-14T03:41:48.397Z,3.53
2023-05-14T03:44:35.728Z,3.13
2023-05-14T03:47:23.737Z,3.10
2023-05-14T03:50:11.483Z,3.43
2023-05-14T03:52:59.540Z,3.13
2023-05-14T03:55:46.525Z,2.90
2023-05-14T03:58:33.483Z,3.20
2023-05-14T04:01:20.538Z,3.47
2023-05-14T04:04:07.817Z,3.20
2023-05-14T04:06:55.358Z,3.47
2023-05-14T04:09:42.362Z,2.90
2023-05-14T04:12:29.350Z,3.10
2023-05-14T04:15:16.903Z,3.30
2023-05-14T04:18:04.173Z,3.03
2023-05-14T04:20:51.206Z,3.17
2023-05-14T04:23:38.275Z,3.30
2023-05-14T04:26:25.393Z,3.87
2023-05-14T04:29:12.357Z,4.20
2023-05-14T04:31:59.612Z,4.40
2023-05-14T04:34:47.299Z,3.50
2023-05-14T04:37:34.292Z,3.80
2023-05-14T04:40:22.831Z,3.70
2023-05-14T04:43:10.627Z,3.50
2023-05-14T04:45:57.729Z,3.23
2023-05-14T04:48:44.780Z,3.70
2023-05-14T04:51:32.548Z,3.63
2023-05-14T04:54:19.666Z,4.00
2023-05-14T04:57:07.190Z,3.93
2023-05-14T04:59:54.184Z,3.80
2023-05-14T05:02:41.581Z,3.90
2023-05-14T05:05:28.725Z,3.93
2023-05-14T05:08:15.768Z,3.63
2023-05-14T05:11:02.785Z,3.60
2023-05-14T05:13:50.369Z,3.50
2023-05-14T05:16:37.322Z,3.90
2023-05-14T05:19:35.910Z,3.57
2023-05-14T05:22:29.774Z,3.63
2023-05-14T05:25:16.926Z,3.87
2023-05-14T05:28:04.060Z,3.73
2023-05-14T05:30:51.096Z,3.73
2023-05-14T05:33:38.533Z,3.40
2023-05-14T05:36:25.722Z,3.97
2023-05-14T05:39:12.922Z,3.53
2023-05-14T05:42:00.407Z,3.20
2023-05-14T05:44:47.409Z,3.47
2023-05-14T05:47:34.547Z,3.13
2023-05-14T05:50:21.739Z,3.40
2023-05-14T05:53:08.855Z,3.47
2023-05-14T05:55:55.869Z,3.30
2023-05-14T05:58:43.129Z,3.83
2023-05-14T06:01:30.446Z,3.40
2023-05-14T06:04:17.492Z,3.77
2023-05-14T06:07:04.784Z,3.67
2023-05-14T06:09:51.772Z,3.57
2023-05-14T06:12:38.801Z,3.60
2023-05-14T06:15:25.800Z,3.53
2023-05-14T06:18:12.847Z,3.67
2023-05-14T06:21:00.290Z,3.57
2023-05-14T06:23:47.435Z,3.43
2023-05-14T06:26:34.413Z,3.27
2023-05-14T06:29:21.421Z,2.97
2023-05-14T06:32:09.021Z,3.63
2023-05-14T06:34:56.051Z,3.40
2023-05-14T06:37:43.020Z,3.27
2023-05-14T06:40:30.043Z,3.10
2023-05-14T06:43:17.025Z,3.87
2023-05-14T06:46:04.049Z,3.07
2023-05-14T06:48:51.112Z,2.73
2023-05-14T06:51:39.045Z,2.97
2023-05-14T06:54:26.124Z,3.07
2023-05-14T06:57:13.098Z,3.20
2023-05-14T07:00:02.895Z,3.03
2023-05-14T07:02:51.594Z,3.13
2023-05-14T07:05:40.595Z,2.80
2023-05-14T07:08:27.552Z,3.13
2023-05-14T07:11:14.877Z,2.63
2023-05-14T07:14:01.888Z,2.70
2023-05-14T07:16:49.037Z,2.50
2023-05-14T07:19:36.110Z,2.70
2023-05-14T07:22:23.124Z,2.60
2023-05-14T07:25:10.277Z,2.50
2023-05-14T07:27:57.248Z,2.57
2023-05-14T07:30:44.273Z,2.43
2023-05-14T07:33:31.277Z,1.97
2023-05-14T07:36:18.295Z,2.20
2023-05-14T07:39:05.349Z,2.30
2023-05-14T07:41:54.693Z,2.13
2023-05-14T07:44:41.661Z,2.37
2023-05-14T07:47:29.389Z,2.10
2023-05-14T07:50:16.555Z,2.20
2023-05-14T07:53:03.718Z,2.27
2023-05-14T07:55:51.727Z,2.13
2023-05-14T07:58:38.823Z,1.90
2023-05-14T08:01:26.386Z,1.77
2023-05-14T08:04:15.149Z,1.90
2023-05-14T08:07:02.142Z,2.00
2023-05-14T08:09:49.122Z,1.90
2023-05-14T08:12:36.200Z,1.90
2023-05-14T08:15:24.544Z,1.80
2023-05-14T08:18:13.494Z,2.00
2023-05-14T08:21:02.688Z,2.43
2023-05-14T08:23:50.930Z,1.87
2023-05-14T08:26:38.909Z,2.00
2023-05-14T08:29:25.980Z,2.10
2023-05-14T08:32:22.759Z,1.90
2023-05-14T08:35:10.903Z,2.30
2023-05-14T08:37:57.961Z,1.87
2023-05-14T08:40:58.696Z,2.10
2023-05-14T08:44:04.363Z,2.20
2023-05-14T08:46:53.732Z,2.00
2023-05-14T08:49:42.719Z,1.90
2023-05-14T08:52:30.587Z,2.00
2023-05-14T08:55:18.161Z,2.20
2023-05-14T08:58:05.172Z,1.93
2023-05-14T09:00:53.964Z,1.90
2023-05-14T09:03:41.401Z,1.90
2023-05-14T09:06:28.893Z,2.03
2023-05-14T09:09:16.272Z,1.80
2023-05-14T09:12:03.496Z,1.83
2023-05-14T09:14:50.908Z,1.77
2023-05-14T09:17:38.079Z,1.47
2023-05-14T09:20:25.883Z,1.60
2023-05-14T09:23:13.200Z,1.80
2023-05-14T09:26:04.600Z,1.90
2023-05-14T09:28:54.838Z,1.90
2023-05-14T09:31:41.901Z,2.00
2023-05-14T09:34:32.200Z,1.97
2023-05-14T09:37:19.189Z,1.80
2023-05-14T09:40:09.024Z,2.00
2023-05-14T09:42:56.245Z,2.00
2023-05-14T09:45:43.262Z,2.27
2023-05-14T09:48:30.310Z,1.93
2023-05-14T09:51:20.975Z,2.10
2023-05-14T09:54:09.266Z,2.20
2023-05-14T09:56:56.280Z,2.10
2023-05-14T09:59:43.316Z,2.10
2023-05-14T10:02:37.657Z,2.30
2023-05-14T10:05:26.787Z,2.60
2023-05-14T10:08:21.938Z,2.80
2023-05-14T10:11:14.329Z,2.50
2023-05-14T10:14:09.000Z,2.47
2023-05-14T10:16:59.016Z,2.60
2023-05-14T10:19:53.001Z,2.50
2023-05-14T10:22:40.163Z,3.10
2023-05-14T10:25:27.557Z,2.90
2023-05-14T10:28:14.695Z,2.97
2023-05-14T10:31:01.852Z,3.00
2023-05-14T10:33:50.767Z,2.63
2023-05-14T10:36:38.675Z,2.67
2023-05-14T10:40:06.477Z,2.90
2023-05-14T10:42:55.517Z,2.67
2023-05-14T10:45:44.739Z,2.50
2023-05-14T10:48:33.718Z,2.33
2023-05-14T10:51:22.955Z,2.40
2023-05-14T10:54:12.166Z,2.67
2023-05-14T10:56:59.686Z,2.77
2023-05-14T10:59:48.852Z,2.43
2023-05-14T11:02:38.705Z,2.60
2023-05-14T11:05:27.668Z,2.23
2023-05-14T11:08:15.621Z,2.37
2023-05-14T11:11:02.647Z,2.53
2023-05-14T11:13:50.326Z,2.37
2023-05-14T11:16:37.772Z,2.27
2023-05-14T11:19:24.754Z,2.27
2023-05-14T11:22:14.901Z,2.43
2023-05-14T11:25:02.344Z,2.50
2023-05-14T11:27:50.101Z,2.30
2023-05-14T11:30:38.157Z,2.50
2023-05-14T11:33:27.755Z,2.30
2023-05-14T11:36:14.805Z,2.13
2023-05-14T11:39:01.763Z,1.93
2023-05-14T11:41:48.843Z,2.20
2023-05-14T11:44:36.457Z,2.10
2023-05-14T11:47:23.440Z,2.00
2023-05-14T11:50:11.212Z,2.03
2023-05-14T11:52:58.249Z,2.23
2023-05-14T11:55:46.955Z,1.83
2023-05-14T11:58:34.169Z,2.00
2023-05-14T12:01:21.232Z,1.93
2023-05-14T12:04:08.317Z,2.00
2023-05-14T12:06:58.502Z,2.33
2023-05-14T12:09:50.737Z,2.10
2023-05-14T12:12:37.795Z,2.20
2023-05-14T12:15:25.082Z,2.20
2023-05-14T12:18:23.275Z,2.10
2023-05-14T12:21:12.056Z,2.00
2023-05-14T12:24:01.826Z,2.10
2023-05-14T12:26:50.811Z,2.20
2023-05-14T12:29:39.017Z,2.13
2023-05-14T12:32:26.842Z,2.00
2023-05-14T12:35:13.968Z,2.00
2023-05-14T12:38:00.953Z,1.70
2023-05-14T12:40:47.935Z,1.90
2023-05-14T12:43:34.915Z,1.73
2023-05-14T12:46:22.313Z,1.87
2023-05-14T12:49:09.504Z,1.80
2023-05-14T12:52:04.483Z,1.80
2023-05-14T12:55:03.806Z,1.83
2023-05-14T12:57:50.853Z,1.70
2023-05-14T13:00:37.972Z,1.80
2023-05-14T13:03:26.131Z,1.93
2023-05-14T13:06:13.207Z,1.80
2023-05-14T13:09:02.353Z,1.90
2023-05-14T13:11:49.359Z,1.50
2023-05-14T13:14:36.462Z,1.60
2023-05-14T13:17:23.575Z,1.50
2023-05-14T13:20:11.064Z,1.80
2023-05-14T13:22:58.214Z,1.60
2023-05-14T13:25:46.130Z,1.70
2023-05-14T13:28:34.377Z,1.70
2023-05-14T13:31:21.421Z,1.80
2023-05-14T13:34:10.187Z,1.60
2023-05-14T13:36:57.260Z,1.80
2023-05-14T13:39:44.232Z,1.80
2023-05-14T13:42:31.225Z,1.70
2023-05-14T13:45:18.420Z,1.90
2023-05-14T13:48:05.664Z,1.70
2023-05-14T13:50:52.723Z,1.80
2023-05-14T13:53:39.695Z,1.70
2023-05-14T13:56:26.665Z,1.90
2023-05-14T13:59:13.779Z,1.60
2023-05-14T14:02:00.783Z,1.90
2023-05-14T14:04:49.355Z,1.30
2023-05-14T14:07:36.552Z,1.50
2023-05-14T14:10:23.743Z,1.90
2023-05-14T14:13:11.014Z,1.50
2023-05-14T14:15:58.221Z,1.30
2023-05-14T14:18:45.374Z,1.23
2023-05-14T14:21:32.676Z,1.07
2023-05-14T14:24:19.730Z,1.10
2023-05-14T14:27:06.736Z,1.30
2023-05-14T14:29:53.775Z,1.30
2023-05-14T14:32:44.475Z,1.20
2023-05-14T14:35:33.317Z,1.27
2023-05-14T14:38:20.298Z,1.30
2023-05-14T14:41:07.979Z,1.20
2023-05-14T14:43:54.966Z,1.30
2023-05-14T14:46:42.924Z,1.10
2023-05-14T14:49:31.291Z,1.10
2023-05-14T14:52:18.269Z,1.30
2023-05-14T14:55:05.834Z,1.50
2023-05-14T14:57:52.794Z,1.10
2023-05-14T15:00:40.288Z,1.30
2023-05-14T15:03:27.438Z,1.30
2023-05-14T15:06:14.503Z,1.40
2023-05-14T15:09:01.547Z,1.20
2023-05-14T15:11:48.545Z,1.40
2023-05-14T15:14:35.654Z,1.17
2023-05-14T15:17:22.781Z,1.07
2023-05-14T15:20:11.018Z,1.10
2023-05-14T15:22:58.063Z,1.20
2023-05-14T15:25:45.109Z,1.23
2023-05-14T15:28:32.093Z,1.50
2023-05-14T15:31:19.085Z,1.43
2023-05-14T15:34:06.083Z,1.30
2023-05-14T15:36:53.080Z,1.20
2023-05-14T15:39:40.049Z,1.87
2023-05-14T15:42:27.054Z,2.00
2023-05-14T15:45:14.360Z,2.80
2023-05-14T15:48:01.368Z,2.37
2023-05-14T15:50:49.749Z,2.30
2023-05-14T15:53:36.940Z,2.13
2023-05-14T15:56:24.156Z,2.50
2023-05-14T15:59:11.147Z,2.03
2023-05-14T16:01:58.222Z,2.03
2023-05-14T16:04:45.297Z,1.97
2023-05-14T16:07:33.036Z,1.90
2023-05-14T16:10:21.034Z,1.60
2023-05-14T16:13:08.025Z,2.13
2023-05-14T16:15:55.163Z,2.20
2023-05-14T16:18:43.223Z,1.90
2023-05-14T16:21:30.377Z,2.17
2023-05-14T16:24:18.756Z,2.30
2023-05-14T16:27:06.129Z,2.03
2023-05-14T16:29:53.308Z,2.60
2023-05-14T16:32:42.120Z,2.20
2023-05-14T16:35:29.239Z,2.10
2023-05-14T16:38:16.272Z,1.90
2023-05-14T16:41:03.668Z,1.90
2023-05-14T16:43:52.514Z,1.90
2023-05-14T16:46:39.618Z,2.13
2023-05-14T16:49:26.635Z,2.23
2023-05-14T16:52:13.593Z,2.00
2023-05-14T16:55:00.601Z,2.20
2023-05-14T16:57:47.615Z,2.20
2023-05-14T17:00:34.690Z,2.07
2023-05-14T17:03:21.914Z,4.00
2023-05-14T17:06:10.045Z,2.63
2023-05-14T17:08:56.996Z,2.50
2023-05-14T17:11:44.003Z,2.80
2023-05-14T17:14:31.574Z,3.00
2023-05-14T17:17:18.851Z,2.73
2023-05-14T17:20:06.256Z,2.20
2023-05-14T17:22:53.281Z,2.10
2023-05-14T17:25:40.261Z,2.50
2023-05-14T17:28:28.423Z,2.57
2023-05-14T17:31:15.539Z,2.00
2023-05-14T17:34:02.662Z,2.20
2023-05-14T17:36:49.746Z,2.10
2023-05-14T17:39:36.791Z,2.00
2023-05-14T17:42:23.734Z,2.13
2023-05-14T17:45:11.047Z,2.30
2023-05-14T17:47:58.062Z,2.43
2023-05-14T17:50:45.136Z,2.50
2023-05-14T17:53:32.183Z,2.30
2023-05-14T17:56:19.520Z,2.30
2023-05-14T17:59:06.971Z,2.97
2023-05-14T18:01:53.943Z,2.27
2023-05-14T18:04:40.978Z,2.40
2023-05-14T18:07:28.538Z,2.73
2023-05-14T18:10:15.592Z,2.30
2023-05-14T18:13:02.595Z,2.10
2023-05-14T18:15:51.556Z,2.40
2023-05-14T18:18:38.618Z,2.63
2023-05-14T18:21:26.172Z,2.43
2023-05-14T18:24:13.171Z,2.30
2023-05-14T18:27:00.512Z,1.97
2023-05-14T18:29:47.513Z,2.20
2023-05-14T18:32:34.500Z,2.17
2023-05-14T18:35:21.603Z,1.87
2023-05-14T18:38:08.581Z,2.50
2023-05-14T18:40:55.568Z,2.27
2023-05-14T18:43:42.681Z,2.30
2023-05-14T18:46:30.059Z,2.40
2023-05-14T18:49:17.110Z,2.03
2023-05-14T18:52:04.854Z,2.13
2023-05-14T18:54:52.346Z,2.50
2023-05-14T18:57:39.320Z,2.30
2023-05-14T19:00:26.288Z,2.10
2023-05-14T19:03:13.513Z,2.33
2023-05-14T19:06:00.621Z,3.93
2023-05-14T19:08:47.548Z,3.13
2023-05-14T19:11:34.500Z,2.87
2023-05-14T19:14:21.458Z,2.47
2023-05-14T19:17:08.548Z,2.20
2023-05-14T19:19:55.782Z,3.80
2023-05-14T19:22:42.721Z,8.33
2023-05-14T19:25:29.728Z,29.67
2023-05-14T19:28:16.747Z,11.83
2023-05-14T19:31:04.648Z,4.27
2023-05-14T19:33:53.250Z,3.40
2023-05-14T19:36:40.310Z,3.27
2023-05-14T19:39:27.416Z,8.90
2023-05-14T19:42:14.397Z,9.47
2023-05-14T19:45:01.383Z,10.50
2023-05-14T19:47:48.447Z,8.87
2023-05-14T19:50:38.113Z,5.37
2023-05-14T19:53:29.628Z,3.30
2023-05-14T19:56:16.713Z,3.07
2023-05-14T19:59:03.802Z,2.97
2023-05-14T20:01:50.772Z,3.30
2023-05-14T20:04:40.039Z,2.63
2023-05-14T20:07:27.600Z,2.60
2023-05-14T20:10:14.723Z,2.83
2023-05-14T20:13:01.695Z,3.13
2023-05-14T20:15:48.758Z,3.37
2023-05-14T20:18:36.153Z,3.37
2023-05-14T20:21:23.694Z,2.83
2023-05-14T20:24:10.684Z,3.10
2023-05-14T20:26:57.694Z,3.07
2023-05-14T20:29:46.623Z,3.47
2023-05-14T20:32:33.844Z,3.27
2023-05-14T20:35:20.881Z,3.03
2023-05-14T20:38:07.978Z,2.90
2023-05-14T20:40:54.997Z,2.93
2023-05-14T20:43:41.926Z,3.17
2023-05-14T20:46:29.355Z,2.67
2023-05-14T20:49:16.373Z,2.60
2023-05-14T20:52:03.470Z,2.40
2023-05-14T20:54:50.506Z,2.80
2023-05-14T20:57:37.486Z,2.50
2023-05-14T21:00:24.628Z,2.63
2023-05-14T21:03:11.738Z,2.50
2023-05-14T21:06:00.660Z,3.20
2023-05-14T21:08:47.643Z,3.10
2023-05-14T21:11:34.572Z,2.93
2023-05-14T21:14:21.664Z,3.00
2023-05-14T21:17:08.650Z,3.07
2023-05-14T21:19:55.771Z,3.37
2023-05-14T21:22:42.750Z,3.43
2023-05-14T21:25:30.481Z,2.97
2023-05-14T21:28:17.476Z,3.60
2023-05-14T21:31:04.462Z,3.57
2023-05-14T21:33:51.524Z,3.50
2023-05-14T21:36:38.623Z,3.57
2023-05-14T21:39:25.606Z,4.03
2023-05-14T21:42:12.701Z,3.50
2023-05-14T21:44:59.667Z,4.10
2023-05-14T21:47:46.693Z,3.73
2023-05-14T21:50:33.713Z,4.00
2023-05-14T21:53:21.048Z,3.50
2023-05-14T21:56:08.256Z,3.93
2023-05-14T21:58:56.011Z,3.30
2023-05-14T22:04:33.014Z,3.50
2023-05-14T22:07:20.031Z,3.50
2023-05-14T22:10:07.394Z,3.37
2023-05-14T22:12:54.322Z,3.50
2023-05-14T22:15:41.397Z,3.20
2023-05-14T22:18:28.508Z,3.03
2023-05-14T22:21:15.628Z,3.10
2023-05-14T22:24:02.685Z,3.10
2023-05-14T22:26:50.416Z,2.77
2023-05-14T22:29:38.328Z,3.20
2023-05-14T22:32:25.732Z,2.97
2023-05-14T22:35:12.780Z,3.27
2023-05-14T22:37:59.762Z,2.77
2023-05-14T22:40:46.800Z,2.93
2023-05-14T22:43:33.821Z,3.57
2023-05-14T22:46:21.142Z,3.43
2023-05-14T22:49:08.114Z,3.27
2023-05-14T22:51:55.157Z,3.40
2023-05-14T22:54:42.422Z,3.00
2023-05-14T22:57:29.492Z,3.00
2023-05-14T23:00:16.632Z,3.07
2023-05-14T23:03:03.845Z,2.80
2023-05-14T23:05:52.036Z,2.70
2023-05-14T23:08:39.116Z,2.40
2023-05-14T23:11:26.601Z,2.60
2023-05-14T23:14:13.553Z,2.13
2023-05-14T23:17:00.571Z,2.30
2023-05-14T23:19:47.599Z,2.20
2023-05-14T23:22:34.597Z,2.20
2023-05-14T23:25:21.578Z,2.13
2023-05-14T23:28:08.598Z,2.20
2023-05-14T23:30:55.747Z,2.30
2023-05-14T23:33:44.618Z,1.93
2023-05-14T23:36:32.554Z,2.90
2023-05-14T23:39:19.638Z,2.30
2023-05-14T23:42:06.735Z,2.37
2023-05-14T23:44:53.701Z,2.20
2023-05-14T23:47:41.158Z,2.23
2023-05-14T23:50:28.189Z,1.73
2023-05-14T23:53:15.119Z,2.07
2023-05-14T23:56:02.237Z,1.83
2023-05-14T23:58:49.217Z,2.00
